createdAt,value
2019-02-22T00:01:19.135Z,51.80
2019-02-22T00:03:47.380Z,51.80
2019-02-22T00:06:15.635Z,51.90
2019-02-22T00:08:43.932Z,51.90
2019-02-22T00:11:12.167Z,51.80
2019-02-22T00:13:40.405Z,51.80
2019-02-22T00:16:08.700Z,51.80
2019-02-22T00:18:36.941Z,51.90
2019-02-22T00:21:05.173Z,51.80
2019-02-22T00:23:33.429Z,51.90
2019-02-22T00:26:01.670Z,52.50
2019-02-22T00:28:29.909Z,51.90
2019-02-22T00:30:58.145Z,51.90
2019-02-22T00:33:26.388Z,51.90
2019-02-22T00:35:54.649Z,51.80
2019-02-22T00:38:22.876Z,51.90
2019-02-22T00:40:51.111Z,51.90
2019-02-22T00:43:19.402Z,51.80
2019-02-22T00:45:47.689Z,51.80
2019-02-22T00:48:16.223Z,51.90
2019-02-22T00:50:44.537Z,51.90
2019-02-22T00:53:12.770Z,51.90
2019-02-22T00:55:41.082Z,52.00
2019-02-22T00:58:09.386Z,52.00
2019-02-22T01:00:37.630Z,52.00
2019-02-22T01:03:05.865Z,51.90
2019-02-22T01:05:34.108Z,52.00
2019-02-22T01:08:02.349Z,52.00
2019-02-22T01:10:31.622Z,51.90
2019-02-22T01:13:00.210Z,51.90
2019-02-22T01:15:28.450Z,51.90
2019-02-22T01:17:56.684Z,52.00
2019-02-22T01:20:24.931Z,51.90
2019-02-22T01:22:53.168Z,51.90
2019-02-22T01:25:21.497Z,51.90
2019-02-22T01:27:49.730Z,51.90
2019-02-22T01:30:17.974Z,51.90
2019-02-22T01:32:46.217Z,52.10
2019-02-22T01:35:14.467Z,51.90
2019-02-22T01:37:42.862Z,51.90
2019-02-22T01:40:11.107Z,52.00
2019-02-22T01:42:39.334Z,51.90
2019-02-22T01:45:07.737Z,52.50
2019-02-22T01:47:35.980Z,51.90
2019-02-22T01:50:05.451Z,51.90
2019-02-22T01:52:33.694Z,51.90
2019-02-22T01:55:01.925Z,52.00
2019-02-22T01:57:30.165Z,51.90
2019-02-22T01:59:58.400Z,51.90
2019-02-22T02:02:26.637Z,52.00
2019-02-22T02:04:54.940Z,51.90
2019-02-22T02:07:23.249Z,51.90
2019-02-22T02:09:51.477Z,51.90
2019-02-22T02:12:19.717Z,51.90
2019-02-22T02:14:47.949Z,52.00
2019-02-22T02:17:17.849Z,52.00
2019-02-22T02:19:46.206Z,51.90
2019-02-22T02:22:14.433Z,51.90
2019-02-22T02:24:42.661Z,51.90
2019-02-22T02:27:11.227Z,51.90
2019-02-22T02:29:39.457Z,51.90
2019-02-22T02:32:07.698Z,51.90
2019-02-22T02:34:35.997Z,51.90
2019-02-22T02:37:04.245Z,52.00
2019-02-22T02:39:32.482Z,51.90
2019-02-22T02:42:00.715Z,51.80
2019-02-22T02:44:29.014Z,52.10
2019-02-22T02:46:57.253Z,51.90
2019-02-22T02:49:25.621Z,51.90
2019-02-22T02:51:53.863Z,51.90
2019-02-22T02:54:22.098Z,51.90
2019-02-22T02:56:50.350Z,52.00
2019-02-22T02:59:18.586Z,51.90
2019-02-22T03:01:46.821Z,51.90
2019-02-22T03:04:15.055Z,52.00
2019-02-22T03:06:50.854Z,51.90
2019-02-22T03:09:19.094Z,51.90
2019-02-22T03:11:47.322Z,51.90
2019-02-22T03:14:15.569Z,51.90
2019-02-22T03:16:43.797Z,52.00
2019-02-22T03:19:12.055Z,52.00
2019-02-22T03:21:40.554Z,51.90
2019-02-22T03:24:08.803Z,52.00
2019-02-22T03:26:37.033Z,51.90
2019-02-22T03:29:05.279Z,52.00
2019-02-22T03:31:33.515Z,51.90
2019-02-22T03:34:02.149Z,51.90
2019-02-22T03:36:30.478Z,51.90
2019-02-22T03:38:58.726Z,51.90
2019-02-22T03:41:32.741Z,51.90
2019-02-22T03:43:57.006Z,51.90
2019-02-22T03:46:25.253Z,52.00
2019-02-22T03:48:53.562Z,51.90
2019-02-22T03:51:21.793Z,51.90
2019-02-22T03:53:50.804Z,52.00
2019-02-22T03:56:19.049Z,52.00
2019-02-22T03:58:47.286Z,51.90
2019-02-22T04:01:15.521Z,51.90
2019-02-22T04:03:43.833Z,52.00
2019-02-22T04:06:12.071Z,52.00
2019-02-22T04:08:40.463Z,51.90
2019-02-22T04:11:08.697Z,52.00
2019-02-22T04:13:36.929Z,52.10
2019-02-22T04:16:05.175Z,52.10
2019-02-22T04:18:33.421Z,51.80
2019-02-22T04:21:01.661Z,51.70
2019-02-22T04:23:29.894Z,52.40
2019-02-22T04:25:58.153Z,52.00
2019-02-22T04:28:26.400Z,52.00
2019-02-22T04:30:54.641Z,52.30
2019-02-22T04:33:22.878Z,52.00
2019-02-22T04:35:51.126Z,51.80
2019-02-22T04:38:19.365Z,51.90
2019-02-22T04:40:47.617Z,52.00
2019-02-22T04:43:15.842Z,52.00
2019-02-22T04:45:44.092Z,51.90
2019-02-22T04:48:12.322Z,52.10
2019-02-22T04:50:40.573Z,52.20
2019-02-22T04:53:08.814Z,52.30
2019-02-22T04:55:37.063Z,52.30
2019-02-22T04:58:05.290Z,52.20
2019-02-22T05:00:33.533Z,52.30
2019-02-22T05:03:01.765Z,52.20
2019-02-22T05:05:30.005Z,52.20
2019-02-22T05:07:58.238Z,52.30
2019-02-22T05:10:26.481Z,52.30
2019-02-22T05:12:54.712Z,52.20
2019-02-22T05:15:22.958Z,52.20
2019-02-22T05:17:51.197Z,52.30
2019-02-22T05:20:19.449Z,52.30
2019-02-22T05:22:47.690Z,52.20
2019-02-22T05:25:15.928Z,52.20
2019-02-22T05:27:44.437Z,52.30
2019-02-22T05:30:12.700Z,52.30
2019-02-22T05:32:40.930Z,52.20
2019-02-22T05:35:10.517Z,52.20
2019-02-22T05:37:38.749Z,52.20
2019-02-22T05:40:06.994Z,52.80
2019-02-22T05:42:35.309Z,52.20
2019-02-22T05:45:03.709Z,52.20
2019-02-22T05:47:31.949Z,52.20
2019-02-22T05:50:00.251Z,52.10
2019-02-22T05:52:28.510Z,52.20
2019-02-22T05:54:56.742Z,52.10
2019-02-22T05:57:24.996Z,52.20
2019-02-22T05:59:53.220Z,52.10
2019-02-22T06:02:21.463Z,52.10
2019-02-22T06:04:49.707Z,52.10
2019-02-22T06:07:18.274Z,52.10
2019-02-22T06:09:46.507Z,52.10
2019-02-22T06:12:14.751Z,52.00
2019-02-22T06:14:42.981Z,52.10
2019-02-22T06:17:14.681Z,52.10
2019-02-22T06:19:41.246Z,52.10
2019-02-22T06:22:09.501Z,52.00
2019-02-22T06:24:37.730Z,52.00
2019-02-22T06:27:06.046Z,52.00
2019-02-22T06:29:34.282Z,52.00
2019-02-22T06:32:02.540Z,51.90
2019-02-22T06:34:30.762Z,52.00
2019-02-22T06:37:02.223Z,52.00
2019-02-22T06:39:28.971Z,52.00
2019-02-22T06:41:57.234Z,52.50
2019-02-22T06:44:25.465Z,52.00
2019-02-22T06:46:53.698Z,52.00
2019-02-22T06:49:21.942Z,52.10
2019-02-22T06:51:50.174Z,52.00
2019-02-22T06:54:18.422Z,51.90
2019-02-22T06:56:46.654Z,52.00
2019-02-22T06:59:14.910Z,51.90
2019-02-22T07:01:43.135Z,51.80
2019-02-22T07:04:11.378Z,52.30
2019-02-22T07:06:39.617Z,51.90
2019-02-22T07:09:07.853Z,51.90
2019-02-22T07:11:49.562Z,51.80
2019-02-22T07:14:17.874Z,51.80
2019-02-22T07:16:46.113Z,51.80
2019-02-22T07:19:14.529Z,51.90
2019-02-22T07:21:52.233Z,51.90
2019-02-22T07:24:12.717Z,52.00
2019-02-22T07:26:40.953Z,51.90
2019-02-22T07:29:09.376Z,52.00
2019-02-22T07:31:37.974Z,51.90
2019-02-22T07:34:06.221Z,51.90
2019-02-22T07:36:34.450Z,51.90
2019-02-22T07:39:04.470Z,52.10
2019-02-22T07:41:32.697Z,51.90
2019-02-22T07:44:00.942Z,51.80
2019-02-22T07:46:29.177Z,51.90
2019-02-22T07:48:57.422Z,51.80
2019-02-22T07:51:25.650Z,51.80
2019-02-22T07:53:53.895Z,51.90
2019-02-22T07:56:22.126Z,51.80
2019-02-22T07:58:50.437Z,51.80
2019-02-22T08:01:18.672Z,51.90
2019-02-22T08:03:47.195Z,51.80
2019-02-22T08:06:15.487Z,51.80
2019-02-22T08:08:43.726Z,51.80
2019-02-22T08:11:12.033Z,51.80
2019-02-22T08:13:41.145Z,51.90
2019-02-22T08:16:11.092Z,51.90
2019-02-22T08:18:39.324Z,51.90
2019-02-22T08:21:07.626Z,51.90
2019-02-22T08:23:35.869Z,52.00
2019-02-22T08:26:04.101Z,51.90
2019-02-22T08:28:32.346Z,51.90
2019-02-22T08:31:00.578Z,52.00
2019-02-22T08:33:28.837Z,51.80
2019-02-22T08:35:57.322Z,51.80
2019-02-22T08:38:25.554Z,52.00
2019-02-22T08:40:53.805Z,51.90
2019-02-22T08:43:31.188Z,51.90
2019-02-22T08:45:52.005Z,51.90
2019-02-22T08:48:20.229Z,51.80
2019-02-22T08:50:48.486Z,51.80
2019-02-22T08:53:16.992Z,51.90
2019-02-22T08:55:45.233Z,52.10
2019-02-22T08:58:13.465Z,51.80
2019-02-22T09:00:41.715Z,51.80
2019-02-22T09:03:09.946Z,51.80
2019-02-22T09:05:38.190Z,51.80
2019-02-22T09:08:06.422Z,51.70
2019-02-22T09:10:34.666Z,51.80
2019-02-22T09:13:02.916Z,51.90
2019-02-22T09:15:31.159Z,51.90
2019-02-22T09:17:59.392Z,51.90
2019-02-22T09:20:27.648Z,52.00
2019-02-22T09:22:56.005Z,51.90
2019-02-22T09:25:24.246Z,51.90
2019-02-22T09:27:52.553Z,51.90
2019-02-22T09:30:20.789Z,51.90
2019-02-22T09:32:49.017Z,51.80
2019-02-22T09:35:17.266Z,52.20
2019-02-22T09:37:47.127Z,51.80
2019-02-22T09:40:15.371Z,51.80
2019-02-22T09:42:43.669Z,51.80
2019-02-22T09:45:12.449Z,51.80
2019-02-22T09:47:40.676Z,51.80
2019-02-22T09:50:14.154Z,51.90
2019-02-22T09:52:42.386Z,52.00
2019-02-22T09:55:12.078Z,51.90
2019-02-22T09:57:40.378Z,52.00
2019-02-22T10:00:11.390Z,51.90
2019-02-22T10:02:39.618Z,51.90
2019-02-22T10:05:09.502Z,51.90
2019-02-22T10:07:37.729Z,51.90
2019-02-22T10:10:09.195Z,51.80
2019-02-22T10:12:37.417Z,51.90
2019-02-22T10:15:07.503Z,51.90
2019-02-22T10:17:35.733Z,51.80
2019-02-22T10:20:05.727Z,52.40
2019-02-22T10:22:33.960Z,51.80
2019-02-22T10:25:02.221Z,51.80
2019-02-22T10:27:30.453Z,51.80
2019-02-22T10:29:58.688Z,51.80
2019-02-22T10:32:26.933Z,51.90
2019-02-22T10:34:55.161Z,51.90
2019-02-22T10:37:23.570Z,52.00
2019-02-22T10:39:52.079Z,51.80
2019-02-22T10:42:20.329Z,51.90
2019-02-22T10:44:48.559Z,51.80
2019-02-22T10:47:16.802Z,51.70
2019-02-22T10:49:45.033Z,51.80
2019-02-22T10:52:13.281Z,51.80
2019-02-22T10:54:41.505Z,51.80
2019-02-22T10:57:09.820Z,51.80
2019-02-22T10:59:38.050Z,51.80
2019-02-22T11:02:06.361Z,51.70
2019-02-22T11:04:34.594Z,51.70
2019-02-22T11:07:02.840Z,51.80
2019-02-22T11:09:31.073Z,51.80
2019-02-22T11:11:59.319Z,51.80
2019-02-22T11:14:29.404Z,51.80
2019-02-22T11:16:57.509Z,51.80
2019-02-22T11:19:25.746Z,51.80
2019-02-22T11:21:53.990Z,51.80
2019-02-22T11:24:22.226Z,51.80
2019-02-22T11:26:50.466Z,51.90
2019-02-22T11:29:18.701Z,51.80
2019-02-22T11:31:47.052Z,51.90
2019-02-22T11:34:15.346Z,52.00
2019-02-22T11:36:43.591Z,51.90
2019-02-22T11:39:11.821Z,52.00
2019-02-22T11:41:40.068Z,51.90
2019-02-22T11:44:08.289Z,51.90
2019-02-22T11:46:36.529Z,51.90
2019-02-22T11:49:04.757Z,51.90
2019-02-22T11:51:33.002Z,52.00
2019-02-22T11:54:01.239Z,51.90
2019-02-22T11:56:29.496Z,52.00
2019-02-22T11:58:57.726Z,52.10
2019-02-22T12:01:27.590Z,52.00
2019-02-22T12:03:55.838Z,52.10
2019-02-22T12:06:24.069Z,52.10
2019-02-22T12:08:53.946Z,52.10
2019-02-22T12:11:22.178Z,52.10
2019-02-22T12:13:50.425Z,52.10
2019-02-22T12:16:18.649Z,52.10
2019-02-22T12:18:47.237Z,52.30
2019-02-22T12:21:15.595Z,52.20
2019-02-22T12:23:43.838Z,52.20
2019-02-22T12:26:12.074Z,52.20
2019-02-22T12:28:40.317Z,52.20
2019-02-22T12:31:08.566Z,52.20
2019-02-22T12:33:36.806Z,52.20
2019-02-22T12:36:05.052Z,52.20
2019-02-22T12:38:33.295Z,52.20
2019-02-22T12:41:01.533Z,52.20
2019-02-22T12:43:29.774Z,52.90
2019-02-22T12:45:58.041Z,52.30
2019-02-22T12:48:26.341Z,52.40
2019-02-22T12:50:54.638Z,52.50
2019-02-22T12:53:22.890Z,52.40
2019-02-22T12:55:51.122Z,52.40
2019-02-22T12:58:19.689Z,52.40
2019-02-22T13:00:47.933Z,52.30
2019-02-22T13:03:16.170Z,52.40
2019-02-22T13:05:44.721Z,52.30
2019-02-22T13:08:12.966Z,52.30
2019-02-22T13:10:42.833Z,52.40
2019-02-22T13:13:11.391Z,52.40
2019-02-22T13:15:39.621Z,52.40
2019-02-22T13:18:07.861Z,52.50
2019-02-22T13:20:36.094Z,52.50
2019-02-22T13:23:04.333Z,52.50
2019-02-22T13:25:32.870Z,52.40
2019-02-22T13:28:01.454Z,52.50
2019-02-22T13:30:29.685Z,52.50
2019-02-22T13:32:57.925Z,52.50
2019-02-22T13:35:26.157Z,52.50
2019-02-22T13:37:54.402Z,52.50
2019-02-22T13:40:22.635Z,52.50
2019-02-22T13:42:50.873Z,52.50
2019-02-22T13:45:26.806Z,52.50
2019-02-22T13:47:49.139Z,52.50
2019-02-22T13:50:18.423Z,52.50
2019-02-22T13:52:46.649Z,52.50
2019-02-22T13:55:16.529Z,52.50
2019-02-22T13:57:44.757Z,52.70
2019-02-22T14:00:17.602Z,52.60
2019-02-22T14:02:45.841Z,52.60
2019-02-22T14:05:15.723Z,52.60
2019-02-22T14:07:54.281Z,52.60
2019-02-22T14:10:22.813Z,52.70
2019-02-22T14:12:51.124Z,52.70
2019-02-22T14:15:19.361Z,52.70
2019-02-22T14:17:47.658Z,52.70
2019-02-22T14:20:15.901Z,52.80
2019-02-22T14:22:44.135Z,52.70
2019-02-22T14:25:12.377Z,52.70
2019-02-22T14:27:40.619Z,52.60
2019-02-22T14:30:15.881Z,52.70
2019-02-22T14:32:44.191Z,52.70
2019-02-22T14:35:12.433Z,52.70
2019-02-22T14:37:40.667Z,52.70
2019-02-22T14:40:11.214Z,52.70
2019-02-22T14:42:39.451Z,52.60
2019-02-22T14:45:09.434Z,52.70
2019-02-22T14:47:39.297Z,52.60
2019-02-22T14:50:15.291Z,52.70
2019-02-22T14:52:43.527Z,52.70
2019-02-22T14:55:11.765Z,52.60
2019-02-22T14:57:39.999Z,52.70
2019-02-22T15:00:14.426Z,52.60
2019-02-22T15:02:42.658Z,52.70
2019-02-22T15:05:12.320Z,52.70
2019-02-22T15:07:40.548Z,52.70
2019-02-22T15:10:09.628Z,52.70
2019-02-22T15:12:39.493Z,52.60
2019-02-22T15:15:12.927Z,52.60
2019-02-22T15:17:45.771Z,52.60
2019-02-22T15:20:14.011Z,52.60
2019-02-22T15:22:42.242Z,52.60
2019-02-22T15:25:12.329Z,52.60
2019-02-22T15:27:40.567Z,52.60
2019-02-22T15:30:11.247Z,52.70
2019-02-22T15:32:39.557Z,52.50
2019-02-22T15:35:10.503Z,52.40
2019-02-22T15:37:38.738Z,52.40
2019-02-22T15:40:09.551Z,52.40
2019-02-22T15:42:40.447Z,52.40
2019-02-22T15:45:10.706Z,52.40
2019-02-22T15:47:38.939Z,52.40
2019-02-22T15:50:10.440Z,52.50
2019-02-22T15:52:38.676Z,52.40
2019-02-22T15:55:07.853Z,52.50
2019-02-22T15:57:36.097Z,52.40
2019-02-22T16:00:07.616Z,52.30
2019-02-22T16:02:36.036Z,52.40
2019-02-22T16:05:06.941Z,52.40
2019-02-22T16:07:44.206Z,52.40
2019-02-22T16:10:07.995Z,52.40
2019-02-22T16:12:36.214Z,52.40
2019-02-22T16:15:07.397Z,52.40
2019-02-22T16:17:35.630Z,53.00
2019-02-22T16:20:05.202Z,52.40
2019-02-22T16:22:33.450Z,52.40
2019-02-22T16:25:01.682Z,52.50
2019-02-22T16:27:29.924Z,52.30
2019-02-22T16:29:58.157Z,52.40
2019-02-22T16:32:28.069Z,52.40
2019-02-22T16:34:56.309Z,52.30
2019-02-22T16:37:24.557Z,52.30
2019-02-22T16:39:52.789Z,52.30
2019-02-22T16:42:21.027Z,52.40
2019-02-22T16:44:49.373Z,52.40
2019-02-22T16:47:17.613Z,52.40
2019-02-22T16:49:45.842Z,52.40
2019-02-22T16:52:14.085Z,52.40
2019-02-22T16:54:42.318Z,52.40
2019-02-22T16:57:10.557Z,52.40
2019-02-22T16:59:38.789Z,52.40
2019-02-22T17:02:07.035Z,52.80
2019-02-22T17:04:35.265Z,52.40
2019-02-22T17:07:03.510Z,52.30
2019-02-22T17:09:33.275Z,52.30
2019-02-22T17:12:06.363Z,52.40
2019-02-22T17:14:31.622Z,52.40
2019-02-22T17:16:59.871Z,52.50
2019-02-22T17:19:28.101Z,52.40
2019-02-22T17:21:56.345Z,52.40
2019-02-22T17:24:24.655Z,52.40
2019-02-22T17:26:52.966Z,52.40
2019-02-22T17:29:21.202Z,52.30
2019-02-22T17:31:49.449Z,52.40
2019-02-22T17:34:17.681Z,52.40
2019-02-22T17:36:45.989Z,52.50
2019-02-22T17:39:14.226Z,52.50
2019-02-22T17:41:42.965Z,52.40
2019-02-22T17:44:11.351Z,52.30
2019-02-22T17:46:39.597Z,52.40
2019-02-22T17:49:08.010Z,52.40
2019-02-22T17:51:36.238Z,52.40
2019-02-22T17:54:04.486Z,52.40
2019-02-22T17:56:32.713Z,52.40
2019-02-22T17:59:00.957Z,52.40
2019-02-22T18:01:29.195Z,52.30
2019-02-22T18:03:57.444Z,52.70
2019-02-22T18:06:25.664Z,52.40
2019-02-22T18:08:53.901Z,52.40
2019-02-22T18:11:22.133Z,52.30
2019-02-22T18:13:50.377Z,52.20
2019-02-22T18:16:18.609Z,52.20
2019-02-22T18:18:46.853Z,52.20
2019-02-22T18:21:15.090Z,52.10
2019-02-22T18:23:43.335Z,52.10
2019-02-22T18:26:11.569Z,52.20
2019-02-22T18:28:39.877Z,52.20
2019-02-22T18:31:08.177Z,52.10
2019-02-22T18:33:36.418Z,52.10
2019-02-22T18:36:04.658Z,52.10
2019-02-22T18:38:32.902Z,52.10
2019-02-22T18:41:01.138Z,52.20
2019-02-22T18:43:29.378Z,52.20
2019-02-22T18:45:57.601Z,52.20
2019-02-22T18:48:25.847Z,52.30
2019-02-22T18:50:54.078Z,52.20
2019-02-22T18:53:22.329Z,52.30
2019-02-22T18:55:50.617Z,52.30
2019-02-22T18:58:18.981Z,52.30
2019-02-22T19:00:47.390Z,52.20
2019-02-22T19:03:15.634Z,52.20
2019-02-22T19:05:44.015Z,52.30
2019-02-22T19:08:12.254Z,52.30
2019-02-22T19:10:40.494Z,52.30
2019-02-22T19:13:08.737Z,52.30
2019-02-22T19:15:37.133Z,52.30
2019-02-22T19:18:05.375Z,52.30
2019-02-22T19:20:33.610Z,52.30
2019-02-22T19:23:01.849Z,52.30
2019-02-22T19:25:30.082Z,52.30
2019-02-22T19:27:58.325Z,52.30
2019-02-22T19:30:26.562Z,52.30
2019-02-22T19:32:56.422Z,52.40
2019-02-22T19:35:24.664Z,52.30
2019-02-22T19:37:52.970Z,52.30
2019-02-22T19:40:23.349Z,52.20
2019-02-22T19:42:51.889Z,52.30
2019-02-22T19:45:20.126Z,52.20
2019-02-22T19:47:48.358Z,52.20
2019-02-22T19:50:16.602Z,52.10
2019-02-22T19:52:44.846Z,52.20
2019-02-22T19:55:19.670Z,52.20
2019-02-22T19:57:48.370Z,52.20
2019-02-22T20:00:17.654Z,52.20
2019-02-22T20:02:45.894Z,52.90
2019-02-22T20:05:14.873Z,52.10
2019-02-22T20:07:43.094Z,52.10
2019-02-22T20:10:22.623Z,52.20
2019-02-22T20:12:50.850Z,52.20
2019-02-22T20:15:22.430Z,52.30
2019-02-22T20:17:54.487Z,52.20
2019-02-22T20:20:20.869Z,52.20
2019-02-22T20:22:50.739Z,52.20
2019-02-22T20:25:20.750Z,52.80
2019-02-22T20:27:48.977Z,52.20
2019-02-22T20:30:19.130Z,52.20
2019-02-22T20:32:49.056Z,52.20
2019-02-22T20:35:22.773Z,52.10
2019-02-22T20:37:53.096Z,52.20
2019-02-22T20:40:21.032Z,52.10
2019-02-22T20:42:49.311Z,52.30
2019-02-22T20:45:17.554Z,52.20
2019-02-22T20:47:45.790Z,52.20
2019-02-22T20:50:14.706Z,52.30
2019-02-22T20:52:42.936Z,52.20
2019-02-22T20:55:11.717Z,52.20
2019-02-22T20:57:40.022Z,52.10
2019-02-22T21:00:15.003Z,52.10
2019-02-22T21:02:43.234Z,52.10
2019-02-22T21:05:11.485Z,52.20
2019-02-22T21:07:39.720Z,52.10
2019-02-22T21:10:11.257Z,52.10
2019-02-22T21:12:39.493Z,52.30
2019-02-22T21:15:10.570Z,52.10
2019-02-22T21:17:38.809Z,52.10
2019-02-22T21:20:13.021Z,52.10
2019-02-22T21:22:41.325Z,52.10
2019-02-22T21:25:10.505Z,52.20
2019-02-22T21:27:38.738Z,52.20
2019-02-22T21:30:14.786Z,52.20
2019-02-22T21:32:43.016Z,52.20
2019-02-22T21:35:11.257Z,52.30
2019-02-22T21:37:41.601Z,52.20
2019-02-22T21:40:11.164Z,52.20
2019-02-22T21:42:39.397Z,52.20
2019-02-22T21:45:12.896Z,52.30
2019-02-22T21:47:41.130Z,52.20
2019-02-22T21:50:16.271Z,52.20
2019-02-22T21:52:45.174Z,52.20
2019-02-22T21:55:14.460Z,52.20
2019-02-22T21:57:42.685Z,52.20
2019-02-22T22:00:17.100Z,52.20
2019-02-22T22:02:45.334Z,52.10
2019-02-22T22:05:13.573Z,52.10
2019-02-22T22:07:41.819Z,52.20
2019-02-22T22:10:10.090Z,52.30
2019-02-22T22:12:38.326Z,52.80
2019-02-22T22:15:10.652Z,52.10
2019-02-22T22:17:39.213Z,52.10
2019-02-22T22:20:08.888Z,52.20
2019-02-22T22:22:38.756Z,52.10
2019-02-22T22:25:12.969Z,52.10
2019-02-22T22:27:41.286Z,52.70
2019-02-22T22:30:13.751Z,52.10
2019-02-22T22:32:41.990Z,52.10
2019-02-22T22:35:12.531Z,52.10
2019-02-22T22:37:40.776Z,52.20
2019-02-22T22:40:12.133Z,52.20
2019-02-22T22:42:40.386Z,52.10
2019-02-22T22:45:11.114Z,52.20
2019-02-22T22:47:39.358Z,52.20
2019-02-22T22:50:10.185Z,52.10
2019-02-22T22:52:38.495Z,52.10
2019-02-22T22:55:08.167Z,52.30
2019-02-22T22:57:36.409Z,52.30
2019-02-22T23:00:16.993Z,52.30
2019-02-22T23:02:45.233Z,52.10
2019-02-22T23:05:13.466Z,52.20
2019-02-22T23:07:41.717Z,52.20
2019-02-22T23:10:09.955Z,52.20
2019-02-22T23:12:38.190Z,52.30
2019-02-22T23:15:06.503Z,52.20
2019-02-22T23:17:34.746Z,52.10
2019-02-22T23:20:03.249Z,52.10
2019-02-22T23:22:31.489Z,52.10
2019-02-22T23:24:59.734Z,52.10
2019-02-22T23:27:29.606Z,52.20
2019-02-22T23:29:57.838Z,52.10
2019-02-22T23:32:26.081Z,52.10
2019-02-22T23:34:54.315Z,52.20
2019-02-22T23:37:22.646Z,52.10
2019-02-22T23:39:52.520Z,52.10
2019-02-22T23:42:20.751Z,52.20
2019-02-22T23:44:49.008Z,52.10
2019-02-22T23:47:17.230Z,52.20
2019-02-22T23:49:45.473Z,52.10
2019-02-22T23:52:13.717Z,52.20
2019-02-22T23:54:41.955Z,52.20
2019-02-22T23:57:10.191Z,52.10
2019-02-22T23:59:38.445Z,52.10
